Time,TemperatureF,DewpointF,PressureIn,WindDirection,WindDirectionDegrees,WindSpeedMPH,WindSpeedGustMPH,Humidity,HourlyPrecipIn,Conditions,Clouds,dailyrainin,SolarRadiationWatts/m^2,SoftwareType,DateUTC
2013-08-09 00:01:00,54.0,52.0,-100.00,NNW,341,2.0,5.0,92,0.01,,,0.06,0.000000,,2013-08-09 06:01:00,
2013-08-09 00:11:00,54.0,52.0,-100.00,NNW,341,2.0,5.0,92,0.01,,,0.06,0.000000,,2013-08-09 06:11:00,
2013-08-09 00:21:00,54.0,52.0,-100.00,NNW,341,2.0,5.0,92,0.01,,,0.06,0.000000,,2013-08-09 06:21:00,
2013-08-09 00:32:00,54.0,52.0,-100.00,NNW,341,2.0,5.0,92,0.01,,,0.06,0.000000,,2013-08-09 06:32:00,
2013-08-09 01:01:00,53.0,51.0,-100.00,West,276,0.0,5.0,92,0.00,,,0.06,0.000000,,2013-08-09 07:01:00,
2013-08-09 01:12:00,53.0,51.0,-100.00,West,276,0.0,5.0,92,0.00,,,0.06,0.000000,,2013-08-09 07:12:00,
2013-08-09 01:21:00,53.0,51.0,-100.00,West,276,0.0,5.0,92,0.00,,,0.06,0.000000,,2013-08-09 07:21:00,
2013-08-09 01:33:00,53.0,51.0,-100.00,West,276,0.0,5.0,92,0.00,,,0.06,0.000000,,2013-08-09 07:33:00,
2013-08-09 02:02:00,53.0,51.0,-100.00,SW,235,0.0,2.0,92,0.00,,,0.06,0.000000,,2013-08-09 08:02:00,
2013-08-09 02:12:00,53.0,51.0,-100.00,SW,235,0.0,2.0,92,0.00,,,0.06,0.000000,,2013-08-09 08:12:00,
2013-08-09 02:21:00,53.0,51.0,-100.00,SW,235,0.0,2.0,92,0.00,,,0.06,0.000000,,2013-08-09 08:21:00,
2013-08-09 02:32:00,53.0,51.0,-100.00,SW,235,0.0,2.0,92,0.00,,,0.06,0.000000,,2013-08-09 08:32:00,
2013-08-09 03:02:00,53.0,51.0,-100.00,ESE,122,0.0,2.0,93,0.00,,,0.06,0.000000,,2013-08-09 09:02:00,
2013-08-09 03:12:00,53.0,51.0,-100.00,ESE,122,0.0,2.0,93,0.00,,,0.06,0.000000,,2013-08-09 09:12:00,
2013-08-09 03:22:00,53.0,51.0,-100.00,ESE,122,0.0,2.0,93,0.00,,,0.06,0.000000,,2013-08-09 09:22:00,
2013-08-09 03:32:00,53.0,51.0,-100.00,ESE,122,0.0,2.0,93,0.00,,,0.06,0.000000,,2013-08-09 09:32:00,
2013-08-09 04:12:00,51.0,49.0,-100.00,East,83,1.0,3.0,94,0.00,,,0.06,0.000000,,2013-08-09 10:12:00,
2013-08-09 04:22:00,51.0,49.0,-100.00,East,83,1.0,3.0,94,0.00,,,0.06,0.000000,,2013-08-09 10:22:00,
2013-08-09 04:32:00,51.0,49.0,-100.00,East,83,1.0,3.0,94,0.00,,,0.06,0.000000,,2013-08-09 10:32:00,
2013-08-09 05:01:00,50.0,49.0,-100.00,SW,231,0.0,4.0,95,0.00,,,0.06,0.000000,,2013-08-09 11:01:00,
2013-08-09 05:11:00,50.0,49.0,-100.00,SW,231,0.0,4.0,95,0.00,,,0.06,0.000000,,2013-08-09 11:11:00,
2013-08-09 05:22:00,50.0,49.0,-100.00,SW,231,0.0,4.0,95,0.00,,,0.06,0.000000,,2013-08-09 11:22:00,
2013-08-09 05:33:00,50.0,49.0,-100.00,SW,231,0.0,4.0,95,0.00,,,0.06,0.000000,,2013-08-09 11:33:00,
2013-08-09 06:12:00,48.0,47.0,-100.00,WNW,287,0.0,2.0,95,0.00,,,0.06,0.000000,,2013-08-09 12:12:00,
2013-08-09 06:22:00,48.0,47.0,-100.00,WNW,287,0.0,2.0,95,0.00,,,0.06,0.000000,,2013-08-09 12:22:00,
2013-08-09 06:32:00,48.0,47.0,-100.00,WNW,287,0.0,2.0,95,0.00,,,0.06,0.000000,,2013-08-09 12:32:00,
2013-08-09 07:01:00,46.0,45.0,-100.00,ESE,113,0.0,0.0,95,0.00,,,0.06,1.000000,,2013-08-09 13:01:00,
2013-08-09 07:12:00,46.0,45.0,-100.00,ESE,113,0.0,0.0,95,0.00,,,0.06,1.000000,,2013-08-09 13:12:00,
2013-08-09 07:23:00,46.0,45.0,-100.00,ESE,113,0.0,0.0,95,0.00,,,0.06,1.000000,,2013-08-09 13:23:00,
2013-08-09 07:32:00,46.0,45.0,-100.00,ESE,113,0.0,0.0,95,0.00,,,0.06,1.000000,,2013-08-09 13:32:00,
2013-08-09 08:02:00,48.0,47.0,-100.00,SE,145,0.0,2.0,95,0.00,,,0.06,30.000000,,2013-08-09 14:02:00,
2013-08-09 08:11:00,48.0,47.0,-100.00,SE,145,0.0,2.0,95,0.00,,,0.06,30.000000,,2013-08-09 14:11:00,
2013-08-09 08:22:00,48.0,47.0,-100.00,SE,145,0.0,2.0,95,0.00,,,0.06,30.000000,,2013-08-09 14:22:00,
2013-08-09 08:33:00,48.0,47.0,-100.00,SE,145,0.0,2.0,95,0.00,,,0.06,30.000000,,2013-08-09 14:33:00,
2013-08-09 09:01:00,53.0,49.0,-100.00,SSW,208,0.0,2.0,86,0.00,,,0.06,121.000000,,2013-08-09 15:01:00,
2013-08-09 09:11:00,53.0,49.0,-100.00,SSW,208,0.0,2.0,86,0.00,,,0.06,121.000000,,2013-08-09 15:11:00,
2013-08-09 09:22:00,53.0,49.0,-100.00,SSW,208,0.0,2.0,86,0.00,,,0.06,121.000000,,2013-08-09 15:22:00,
2013-08-09 09:32:00,53.0,49.0,-100.00,SSW,208,0.0,2.0,86,0.00,,,0.06,121.000000,,2013-08-09 15:32:00,
2013-08-09 10:01:00,56.0,50.0,-100.00,NW,325,2.0,4.0,80,0.00,,,0.06,163.000000,,2013-08-09 16:01:00,
2013-08-09 10:11:00,56.0,50.0,-100.00,NW,325,2.0,4.0,80,0.00,,,0.06,163.000000,,2013-08-09 16:11:00,
2013-08-09 10:22:00,56.0,50.0,-100.00,NW,325,2.0,4.0,80,0.00,,,0.06,163.000000,,2013-08-09 16:22:00,
2013-08-09 10:32:00,56.0,50.0,-100.00,NW,325,2.0,4.0,80,0.00,,,0.06,163.000000,,2013-08-09 16:32:00,
2013-08-09 11:02:00,58.0,49.0,-100.00,NNE,23,1.0,5.0,72,0.00,,,0.06,158.000000,,2013-08-09 17:02:00,
2013-08-09 11:11:00,58.0,49.0,-100.00,NNE,23,1.0,5.0,72,0.00,,,0.06,158.000000,,2013-08-09 17:11:00,
2013-08-09 11:22:00,58.0,49.0,-100.00,NNE,23,1.0,5.0,72,0.00,,,0.06,158.000000,,2013-08-09 17:22:00,
2013-08-09 11:32:00,58.0,49.0,-100.00,NNE,23,1.0,5.0,72,0.00,,,0.06,158.000000,,2013-08-09 17:32:00,
2013-08-09 12:01:00,57.0,53.0,-100.00,ESE,102,1.0,3.0,87,0.02,,,0.08,97.000000,,2013-08-09 18:01:00,
2013-08-09 12:11:00,57.0,53.0,-100.00,ESE,102,1.0,3.0,87,0.02,,,0.08,97.000000,,2013-08-09 18:11:00,
2013-08-09 12:22:00,57.0,53.0,-100.00,ESE,102,1.0,3.0,87,0.02,,,0.08,97.000000,,2013-08-09 18:22:00,
2013-08-09 12:32:00,57.0,53.0,-100.00,ESE,102,1.0,3.0,87,0.02,,,0.08,97.000000,,2013-08-09 18:32:00,
2013-08-09 13:02:00,59.0,54.0,-100.00,SSW,205,0.0,3.0,84,0.00,,,0.08,146.000000,,2013-08-09 19:02:00,
2013-08-09 13:11:00,59.0,54.0,-100.00,SSW,205,0.0,3.0,84,0.00,,,0.08,146.000000,,2013-08-09 19:11:00,
2013-08-09 13:22:00,59.0,54.0,-100.00,SSW,205,0.0,3.0,84,0.00,,,0.08,146.000000,,2013-08-09 19:22:00,
2013-08-09 13:32:00,59.0,54.0,-100.00,SSW,205,0.0,3.0,84,0.00,,,0.08,146.000000,,2013-08-09 19:32:00,
2013-08-09 14:11:00,65.0,48.0,-100.00,East,88,3.0,8.0,55,0.00,,,0.08,449.000000,,2013-08-09 20:11:00,
2013-08-09 14:22:00,65.0,48.0,-100.00,East,88,3.0,8.0,55,0.00,,,0.08,449.000000,,2013-08-09 20:22:00,
2013-08-09 14:32:00,65.0,48.0,-100.00,East,88,3.0,8.0,55,0.00,,,0.08,449.000000,,2013-08-09 20:32:00,
2013-08-09 15:12:00,71.0,45.0,-100.00,NNW,341,4.0,11.0,40,0.00,,,0.08,882.000000,,2013-08-09 21:12:00,
2013-08-09 15:22:00,71.0,45.0,-100.00,NNW,341,4.0,11.0,40,0.00,,,0.08,882.000000,,2013-08-09 21:22:00,
2013-08-09 15:32:00,71.0,45.0,-100.00,NNW,341,4.0,11.0,40,0.00,,,0.08,882.000000,,2013-08-09 21:32:00,
2013-08-09 16:11:00,75.0,44.0,-100.00,WSW,251,4.0,8.0,33,0.00,,,0.08,922.000000,,2013-08-09 22:11:00,
2013-08-09 16:22:00,75.0,44.0,-100.00,WSW,251,4.0,8.0,33,0.00,,,0.08,922.000000,,2013-08-09 22:22:00,
2013-08-09 16:32:00,75.0,44.0,-100.00,WSW,251,4.0,8.0,33,0.00,,,0.08,922.000000,,2013-08-09 22:32:00,
2013-08-09 17:01:00,77.0,42.0,-100.00,NW,324,3.0,8.0,29,0.00,,,0.08,793.000000,,2013-08-09 23:01:00,
2013-08-09 17:11:00,77.0,42.0,-100.00,NW,324,3.0,8.0,29,0.00,,,0.08,793.000000,,2013-08-09 23:11:00,
2013-08-09 17:21:00,77.0,42.0,-100.00,NW,324,3.0,8.0,29,0.00,,,0.08,793.000000,,2013-08-09 23:21:00,
2013-08-09 17:32:00,77.0,42.0,-100.00,NW,324,3.0,8.0,29,0.00,,,0.08,793.000000,,2013-08-09 23:32:00,
2013-08-09 18:01:00,74.0,42.0,-100.00,NNE,12,5.0,11.0,32,0.00,,,0.08,600.000000,,2013-08-10 00:01:00,
2013-08-09 18:11:00,74.0,42.0,-100.00,NNE,12,5.0,11.0,32,0.00,,,0.08,600.000000,,2013-08-10 00:11:00,
2013-08-09 18:22:00,74.0,42.0,-100.00,NNE,12,5.0,11.0,32,0.00,,,0.08,600.000000,,2013-08-10 00:22:00,
2013-08-09 18:33:00,74.0,42.0,-100.00,NNE,12,5.0,11.0,32,0.00,,,0.08,600.000000,,2013-08-10 00:33:00,
2013-08-09 19:01:00,72.0,41.0,-100.00,North,4,4.0,10.0,33,0.00,,,0.08,59.000000,,2013-08-10 01:01:00,
2013-08-09 19:11:00,72.0,41.0,-100.00,North,4,4.0,10.0,33,0.00,,,0.08,59.000000,,2013-08-10 01:11:00,
2013-08-09 19:21:00,72.0,41.0,-100.00,North,4,4.0,10.0,33,0.00,,,0.08,59.000000,,2013-08-10 01:21:00,
2013-08-09 19:32:00,72.0,41.0,-100.00,North,4,4.0,10.0,33,0.00,,,0.08,59.000000,,2013-08-10 01:32:00,
2013-08-09 20:03:00,71.0,44.0,-100.00,East,87,6.0,14.0,38,0.00,,,0.08,81.000000,,2013-08-10 02:03:00,
2013-08-09 20:11:00,71.0,44.0,-100.00,East,87,6.0,14.0,38,0.00,,,0.08,81.000000,,2013-08-10 02:11:00,
2013-08-09 20:21:00,71.0,44.0,-100.00,East,87,6.0,14.0,38,0.00,,,0.08,81.000000,,2013-08-10 02:21:00,
2013-08-09 20:32:00,71.0,44.0,-100.00,East,87,6.0,14.0,38,0.00,,,0.08,81.000000,,2013-08-10 02:32:00,
2013-08-09 21:01:00,64.0,44.0,-100.00,East,79,4.0,13.0,49,0.00,,,0.08,12.000000,,2013-08-10 03:01:00,
2013-08-09 21:11:00,64.0,44.0,-100.00,East,79,4.0,13.0,49,0.00,,,0.08,12.000000,,2013-08-10 03:11:00,
2013-08-09 21:21:00,64.0,44.0,-100.00,East,79,4.0,13.0,49,0.00,,,0.08,12.000000,,2013-08-10 03:21:00,
2013-08-09 21:32:00,64.0,44.0,-100.00,East,79,4.0,13.0,49,0.00,,,0.08,12.000000,,2013-08-10 03:32:00,
2013-08-09 22:01:00,60.0,45.0,-100.00,NE,43,2.0,6.0,58,0.00,,,0.04,0.000000,,2013-08-10 04:01:00,
2013-08-09 22:12:00,60.0,45.0,-100.00,NE,43,2.0,6.0,58,0.00,,,0.04,0.000000,,2013-08-10 04:12:00,
2013-08-09 22:22:00,60.0,45.0,-100.00,NE,43,2.0,6.0,58,0.00,,,0.04,0.000000,,2013-08-10 04:22:00,
2013-08-09 22:32:00,60.0,45.0,-100.00,NE,43,2.0,6.0,58,0.00,,,0.04,0.000000,,2013-08-10 04:32:00,
2013-08-09 23:02:00,58.0,45.0,-100.00,ENE,62,2.0,5.0,62,0.00,,,0.03,0.000000,,2013-08-10 05:02:00,
2013-08-09 23:11:00,58.0,45.0,-100.00,ENE,62,2.0,5.0,62,0.00,,,0.03,0.000000,,2013-08-10 05:11:00,
2013-08-09 23:21:00,58.0,45.0,-100.00,ENE,62,2.0,5.0,62,0.00,,,0.03,0.000000,,2013-08-10 05:21:00,
2013-08-09 23:32:00,58.0,45.0,-100.00,ENE,62,2.0,5.0,62,0.00,,,0.03,0.000000,,2013-08-10 05:32:00,